メインページ
METAR-TAF:

METAR-TAF

空港 :

Livingston County Spencer J. Hardy Airport

Howell, ミシガン州, アメリカ合衆国

緯度: 42-37-46N, 経度: 083-59-03W, 海抜: 293m

現時点の気象観測

当レポートは20分前の18:36(UTC)に作成
西/南西の風 6kt
気温 31°C
湿度 66%
気圧 1012 hPa
視程: 16.1km
晴天

METAR: KOZW 191836Z AUTO 24006KT 10SM CLR 31/24 A2987 RMK AO2 T03130235

時間: 14:56 (18:56 UTC)


TAF: 見つかりません

4,000以上の空港の気象観測と天気予報(METAR報とTAF報)

利用可能な観測所は地図上に黄色い丸と赤い丸で示す。

丸の上にカーソルを重ねると観測所名を参照できる。

次にクリックすると気象観測と天気予報を参照できる。

マップの切り替え:黒色「×」印の緑ボタンをクリックして拡大、「-」印の緑ボタンをクリックして縮小、緑色の三角印をクリックして隣りの地図に切り替え


METAR-TAF: